Anna, Texas
Current Conditions -  °F | °C
As of 11:53 AM on Tuesday 21 Oct 2014 (Local Time) from KTKI Reporting Station
Clear Clear  
Wind Chill: 76°   Ceiling: Unl
Heat Index: 76°   Visibility: 10mi
Dew Point: 58°   Wind: 3mph
Humidity: 54%   Direction: NA
Pressure: 30.11"   Gusts: NA
Location:  33.35°N, 96.55°W
Report Text: KTKI 211653Z VRB03KT 10SM CLR 24/14 A3011 RMK AO2 SLP196 T02440144
Loading
Personal Weather Stations






























Interactive Weather Map
Tropical Storm Tracking
New forecast layout! Learn more

10-Day Weather Forecast

Advertisements
Track Severe Weather on mobile